Time;durP1;ratioP1;P1;durP2;ratioP2;P2;SDS_P1;SDS_P2;PMS_P1;PMS_P2;Temp;Humidity;BMP_temperature;BMP_pressure;BME280_temperature;BME280_humidity;BME280_pressure;Samples;Min_cycle;Max_cycle;Signal;HPM_P1;HPM_P2
2024/04/17 00:00:34;;;;;;;0.50;0.50;;;;;;;4.85;100.00;92164.28;2108658;28;20035;-85
2024/04/17 00:01:35;;;;;;;0.40;0.40;;;;;;;4.73;100.00;92155.00;2103090;28;20054;-86
2024/04/17 00:02:36;;;;;;;0.38;0.38;;;;;;;4.86;100.00;92160.50;2091985;28;20025;-84
2024/04/17 00:03:37;;;;;;;0.45;0.45;;;;;;;4.88;100.00;92158.19;2089311;28;20032;-84
2024/04/17 00:04:38;;;;;;;0.40;0.40;;;;;;;4.74;100.00;92156.53;2098027;28;20033;-84
2024/04/17 00:05:39;;;;;;;0.40;0.40;;;;;;;4.69;100.00;92145.63;2114887;27;20032;-84
2024/04/17 00:06:40;;;;;;;0.40;0.40;;;;;;;4.85;100.00;92151.06;2106215;28;20020;-84
2024/04/17 00:07:41;;;;;;;0.57;0.40;;;;;;;4.78;100.00;92145.88;2096722;28;20048;-83
2024/04/17 00:08:42;;;;;;;0.32;0.32;;;;;;;4.88;100.00;92142.31;2097259;28;20024;-85
2024/04/17 00:09:43;;;;;;;0.40;0.40;;;;;;;4.94;100.00;92147.88;2106100;28;20023;-84
2024/04/17 00:10:44;;;;;;;0.40;0.40;;;;;;;4.92;100.00;92144.91;2109204;28;20065;-83
2024/04/17 00:11:46;;;;;;;0.40;0.40;;;;;;;4.78;100.00;92143.22;2110621;28;20641;-84
2024/04/17 00:12:47;;;;;;;0.30;0.30;;;;;;;4.96;100.00;92142.94;2104825;28;20031;-85
2024/04/17 00:13:48;;;;;;;0.60;0.50;;;;;;;4.98;100.00;92143.28;2097436;28;20115;-85
2024/04/17 00:14:48;;;;;;;0.30;0.30;;;;;;;4.74;100.00;92142.53;2106298;28;20539;-84
2024/04/17 00:15:49;;;;;;;0.40;0.40;;;;;;;4.74;100.00;92143.28;2109726;28;20058;-84
2024/04/17 00:16:50;;;;;;;0.40;0.40;;;;;;;4.82;100.00;92137.88;2114258;28;20479;-84
2024/04/17 00:17:51;;;;;;;0.60;0.60;;;;;;;4.75;100.00;92139.50;2104921;28;20031;-83
2024/04/17 00:18:52;;;;;;;0.50;0.50;;;;;;;4.54;100.00;92148.50;2096579;28;20370;-84
2024/04/17 00:19:53;;;;;;;0.30;0.30;;;;;;;4.54;100.00;92135.25;2098308;28;20469;-85
2024/04/17 00:20:54;;;;;;;0.35;0.35;;;;;;;4.58;100.00;92150.34;2094434;28;20129;-84
2024/04/17 00:21:55;;;;;;;0.40;0.40;;;;;;;4.52;100.00;92142.09;2114541;28;20057;-84
2024/04/17 00:22:56;;;;;;;0.40;0.40;;;;;;;4.67;100.00;92134.72;2100442;28;20020;-84
2024/04/17 00:23:57;;;;;;;0.50;0.50;;;;;;;4.60;100.00;92140.09;2111403;28;20405;-84
2024/04/17 00:24:58;;;;;;;0.40;0.40;;;;;;;4.79;100.00;92139.44;2106053;28;20144;-84
2024/04/17 00:25:59;;;;;;;0.40;0.40;;;;;;;4.99;100.00;92148.16;2105621;28;20035;-83
2024/04/17 00:27:00;;;;;;;0.40;0.40;;;;;;;5.03;100.00;92140.16;2105332;28;20472;-83
2024/04/17 00:28:01;;;;;;;0.70;0.50;;;;;;;4.99;100.00;92134.94;2097588;28;20029;-84
2024/04/17 00:29:02;;;;;;;0.80;0.30;;;;;;;5.04;100.00;92145.06;2096971;28;20112;-84
2024/04/17 00:30:03;;;;;;;0.40;0.40;;;;;;;5.08;100.00;92141.59;2110506;28;20047;-84
2024/04/17 00:31:04;;;;;;;0.40;0.40;;;;;;;5.15;100.00;92149.44;2101291;28;20551;-84
2024/04/17 00:32:07;;;;;;;0.40;0.40;;;;;;;5.16;100.00;92145.63;2103350;28;20060;-84
2024/04/17 00:33:08;;;;;;;0.40;0.40;;;;;;;5.08;100.00;92141.59;2114067;28;20024;-84
2024/04/17 00:34:09;;;;;;;0.40;0.40;;;;;;;4.78;100.00;92145.88;2105674;28;20060;-85
2024/04/17 00:35:10;;;;;;;0.40;0.40;;;;;;;4.70;100.00;92137.31;2105896;28;20493;-84
2024/04/17 00:36:17;;;;;;;0.40;0.40;;;;;;;4.94;100.00;92134.66;2096242;28;20389;-83
2024/04/17 00:37:18;;;;;;;0.50;0.50;;;;;;;4.99;100.00;92132.28;2092051;28;20046;-84
2024/04/17 00:38:19;;;;;;;0.40;0.40;;;;;;;4.86;100.00;92131.38;2089316;28;20033;-85
2024/04/17 00:39:20;;;;;;;0.40;0.40;;;;;;;4.96;100.00;92132.34;2094551;28;20020;-83
2024/04/17 00:40:22;;;;;;;0.40;0.40;;;;;;;5.01;100.00;92132.63;2111044;28;20027;-85
2024/04/17 00:41:24;;;;;;;0.50;0.50;;;;;;;4.95;100.00;92130.84;2106044;28;20047;-85
2024/04/17 00:42:25;;;;;;;0.65;0.50;;;;;;;4.85;100.00;92132.53;2101779;28;20019;-84
2024/04/17 00:43:27;;;;;;;0.40;0.40;;;;;;;4.67;100.00;92135.44;2110162;28;20023;-85
2024/04/17 00:44:28;;;;;;;0.40;0.40;;;;;;;4.92;100.00;92123.72;2111373;28;20558;-85
2024/04/17 00:45:33;;;;;;;0.40;0.40;;;;;;;4.75;100.00;92128.16;2089663;28;20474;-84
2024/04/17 00:46:37;;;;;;;0.40;0.40;;;;;;;4.81;100.00;92129.19;2102465;28;20063;-85
2024/04/17 00:47:38;;;;;;;0.45;0.45;;;;;;;5.00;100.00;92125.84;2110049;28;20058;-85
2024/04/17 00:48:39;;;;;;;1.70;0.55;;;;;;;5.01;100.00;92124.69;2102712;28;20029;-84
2024/04/17 00:49:40;;;;;;;1.52;0.40;;;;;;;4.99;100.00;92126.25;2095828;28;20032;-83
2024/04/17 00:50:47;;;;;;;1.63;0.40;;;;;;;5.01;100.00;92124.69;2100256;28;20035;-84
2024/04/17 00:51:50;;;;;;;0.40;0.35;;;;;;;5.08;100.00;92125.72;2106562;27;20016;-84
2024/04/17 00:52:51;;;;;;;0.63;0.40;;;;;;;5.16;100.00;92119.16;2108610;27;20024;-83
2024/04/17 00:53:53;;;;;;;0.30;0.30;;;;;;;5.12;100.00;92118.47;2107583;28;20138;-84
2024/04/17 00:54:54;;;;;;;0.60;0.60;;;;;;;4.91;100.00;92119.56;2115287;27;20023;-84
2024/04/17 00:55:56;;;;;;;0.40;0.40;;;;;;;5.27;100.00;92114.41;2106663;28;20032;-86
2024/04/17 00:56:58;;;;;;;0.40;0.40;;;;;;;5.14;100.00;92119.56;2099974;28;20040;-84
2024/04/17 00:58:00;;;;;;;0.40;0.40;;;;;;;5.21;100.00;92108.06;2101237;27;20067;-85
2024/04/17 00:59:08;;;;;;;0.50;0.50;;;;;;;5.13;100.00;92109.34;2104827;28;20051;-85
2024/04/17 01:00:10;;;;;;;0.50;0.50;;;;;;;5.10;100.00;92115.47;2105100;27;20379;-83
2024/04/17 01:01:11;;;;;;;0.45;0.45;;;;;;;5.11;100.00;92112.41;2098167;28;20024;-85
2024/04/17 01:02:12;;;;;;;0.43;0.43;;;;;;;5.08;100.00;92107.19;2099569;28;20020;-84
2024/04/17 01:03:13;;;;;;;0.47;0.47;;;;;;;5.15;100.00;92115.75;2109702;28;20031;-85
2024/04/17 01:04:14;;;;;;;0.50;0.50;;;;;;;5.17;100.00;92116.06;2104868;28;20067;-85
2024/04/17 01:05:16;;;;;;;0.40;0.40;;;;;;;5.08;100.00;92115.88;2093468;28;20396;-85
2024/04/17 01:06:18;;;;;;;0.50;0.50;;;;;;;5.10;100.00;92105.63;2097388;27;20505;-85
2024/04/17 01:07:19;;;;;;;0.55;0.55;;;;;;;4.96;100.00;92111.91;2108662;28;20038;-86
2024/04/17 01:08:20;;;;;;;0.50;0.50;;;;;;;4.96;100.00;92111.91;2109672;28;20049;-86
2024/04/17 01:09:22;;;;;;;0.60;0.60;;;;;;;5.21;100.00;92108.81;2105127;28;20024;-85
2024/04/17 01:10:23;;;;;;;0.50;0.50;;;;;;;5.29;100.00;92107.53;2109189;28;20024;-85
2024/04/17 01:11:24;;;;;;;0.40;0.40;;;;;;;5.25;100.00;92111.41;2106064;28;20426;-85
2024/04/17 01:12:25;;;;;;;0.40;0.40;;;;;;;5.50;100.00;92116.25;2102145;28;20425;-85
2024/04/17 01:13:26;;;;;;;0.55;0.55;;;;;;;5.41;100.00;92108.84;2104334;28;20512;-86
2024/04/17 01:14:26;;;;;;;0.70;0.50;;;;;;;5.26;100.00;92118.19;2108551;28;20294;-85
2024/04/17 01:15:27;;;;;;;0.50;0.50;;;;;;;5.30;100.00;92113.59;2111741;28;20515;-85
2024/04/17 01:16:28;;;;;;;1.25;0.60;;;;;;;5.19;100.00;92113.78;2108880;27;20038;-86
2024/04/17 01:17:32;;;;;;;0.63;0.63;;;;;;;5.11;100.00;92109.75;2120607;27;20039;-85
2024/04/17 01:18:33;;;;;;;0.60;0.60;;;;;;;4.96;100.00;92103.97;2099187;28;20473;-85
2024/04/17 01:19:37;;;;;;;0.60;0.60;;;;;;;5.10;100.00;92110.19;2107940;28;20020;-85
2024/04/17 01:20:38;;;;;;;0.40;0.40;;;;;;;5.17;100.00;92110.78;2102612;28;20078;-85
2024/04/17 01:21:39;;;;;;;0.90;0.60;;;;;;;5.10;100.00;92102.25;2112957;28;20061;-85
2024/04/17 01:22:40;;;;;;;2.70;0.60;;;;;;;5.43;100.00;92105.78;2117739;27;20139;-86
2024/04/17 01:23:41;;;;;;;1.23;0.65;;;;;;;5.72;100.00;92109.38;2106455;28;20036;-85
2024/04/17 01:24:42;;;;;;;0.55;0.52;;;;;;;5.50;100.00;92105.66;2100596;28;20056;-85
2024/04/17 01:25:42;;;;;;;0.50;0.50;;;;;;;5.38;100.00;92106.25;2099455;28;20473;-86
2024/04/17 01:26:43;;;;;;;0.60;0.60;;;;;;;5.34;100.00;92103.66;2099388;28;20083;-86
2024/04/17 01:27:44;;;;;;;0.55;0.55;;;;;;;5.54;100.00;92112.38;2120104;27;20113;-86
2024/04/17 01:28:46;;;;;;;0.50;0.50;;;;;;;5.29;100.00;92104.88;2113917;28;20498;-85
2024/04/17 01:29:47;;;;;;;0.65;0.65;;;;;;;5.28;100.00;92107.97;2088658;28;20112;-86
2024/04/17 01:30:48;;;;;;;0.70;0.70;;;;;;;5.26;100.00;92108.34;2109406;28;20024;-86
2024/04/17 01:31:49;;;;;;;0.60;0.60;;;;;;;5.14;100.00;92102.91;2114085;28;20047;-85
2024/04/17 01:32:51;;;;;;;1.05;0.70;;;;;;;5.24;100.00;92099.31;2117188;27;20083;-85
2024/04/17 01:33:52;;;;;;;1.17;0.60;;;;;;;5.45;100.00;92101.59;2116563;27;20031;-86
2024/04/17 01:34:53;;;;;;;0.60;0.60;;;;;;;5.38;100.00;92104.34;2114617;27;20050;-85
2024/04/17 01:35:54;;;;;;;1.90;0.70;;;;;;;5.30;100.00;92097.69;2107637;28;20023;-86
2024/04/17 01:36:55;;;;;;;0.70;0.70;;;;;;;5.34;100.00;92101.03;2101517;28;20035;-85
2024/04/17 01:37:56;;;;;;;0.90;0.90;;;;;;;5.27;100.00;92104.56;2100099;28;20036;-84
2024/04/17 01:38:56;;;;;;;1.30;0.82;;;;;;;5.27;100.00;92101.16;2100957;28;20055;-84
2024/04/17 01:40:07;;;;;;;0.60;0.60;;;;;;;5.27;100.00;92098.53;2105526;28;20050;-86
2024/04/17 01:41:08;;;;;;;0.80;0.80;;;;;;;5.28;100.00;92105.31;2119487;27;20064;-85
2024/04/17 01:42:09;;;;;;;0.65;0.65;;;;;;;5.28;100.00;92098.09;2117418;27;20038;-86
2024/04/17 01:43:10;;;;;;;0.80;0.60;;;;;;;5.35;100.00;92096.47;2108611;28;20364;-85
2024/04/17 01:44:11;;;;;;;0.70;0.70;;;;;;;4.93;100.00;92096.09;2098731;28;20029;-84
2024/04/17 01:45:12;;;;;;;0.93;0.75;;;;;;;5.10;100.00;92105.63;2089114;28;20025;-85
2024/04/17 01:46:13;;;;;;;2.22;0.95;;;;;;;5.08;100.00;92099.22;2106166;28;20028;-85
2024/04/17 01:47:13;;;;;;;0.60;0.60;;;;;;;5.38;100.00;92100.97;2109247;28;20035;-84
2024/04/17 01:48:14;;;;;;;0.57;0.57;;;;;;;5.23;100.00;92100.47;2100654;28;20512;-83
2024/04/17 01:49:15;;;;;;;0.75;0.50;;;;;;;5.46;100.00;92100.41;2105219;28;20091;-86
2024/04/17 01:50:26;;;;;;;0.70;0.70;;;;;;;5.39;100.00;92091.84;2097159;28;20048;-85
2024/04/17 01:51:27;;;;;;;0.57;0.57;;;;;;;5.20;100.00;92098.63;2091608;28;20098;-85
2024/04/17 01:52:29;;;;;;;0.75;0.70;;;;;;;5.03;100.00;92092.50;2108312;28;20058;-85
2024/04/17 01:53:30;;;;;;;1.20;0.68;;;;;;;5.18;100.00;92095.63;2103708;28;20053;-85
2024/04/17 01:54:31;;;;;;;0.95;0.60;;;;;;;5.26;100.00;92091.72;2082640;28;20025;-86
2024/04/17 01:55:32;;;;;;;0.60;0.60;;;;;;;5.02;100.00;92101.59;2098242;28;20111;-85
2024/04/17 01:56:33;;;;;;;0.82;0.60;;;;;;;5.22;100.00;92099.75;2099630;28;20679;-85
2024/04/17 01:57:34;;;;;;;0.50;0.50;;;;;;;5.27;100.00;92093.97;2099397;28;20036;-84
2024/04/17 01:58:35;;;;;;;0.47;0.47;;;;;;;5.48;100.00;92098.09;2101061;28;20017;-85
2024/04/17 01:59:36;;;;;;;0.57;0.57;;;;;;;5.07;100.00;92097.75;2096450;28;20052;-85
2024/04/17 02:00:37;;;;;;;0.50;0.50;;;;;;;5.20;100.00;92098.63;2107489;28;20032;-84
2024/04/17 02:01:38;;;;;;;0.85;0.60;;;;;;;4.77;100.00;92097.47;2092779;28;20032;-83
2024/04/17 02:02:39;;;;;;;0.50;0.50;;;;;;;5.07;100.00;92095.84;2092523;28;20033;-84
2024/04/17 02:03:40;;;;;;;0.85;0.60;;;;;;;5.07;100.00;92095.09;2103392;27;20028;-85
2024/04/17 02:04:41;;;;;;;0.55;0.50;;;;;;;5.26;100.00;92097.75;2105854;28;20105;-86
2024/04/17 02:05:42;;;;;;;0.55;0.47;;;;;;;5.17;100.00;92094.16;2102505;28;20024;-85
2024/04/17 02:06:43;;;;;;;0.50;0.50;;;;;;;5.14;100.00;92103.66;2100775;28;20575;-85
2024/04/17 02:07:44;;;;;;;0.85;0.73;;;;;;;5.18;100.00;92104.34;2096122;28;20036;-86
2024/04/17 02:08:45;;;;;;;1.05;0.50;;;;;;;5.39;100.00;92100.53;2100652;28;20107;-85
2024/04/17 02:09:46;;;;;;;0.45;0.45;;;;;;;5.36;100.00;92104.03;2104675;28;20465;-85
2024/04/17 02:10:47;;;;;;;0.60;0.60;;;;;;;5.32;100.00;92098.03;2109123;28;20023;-85
2024/04/17 02:11:47;;;;;;;0.45;0.45;;;;;;;5.26;100.00;92097.00;2104991;28;20111;-85
2024/04/17 02:12:48;;;;;;;0.90;0.50;;;;;;;5.41;100.00;92105.47;2116393;27;20030;-85
2024/04/17 02:13:49;;;;;;;0.43;0.43;;;;;;;5.34;100.00;92103.66;2121355;27;20080;-86
2024/04/17 02:14:50;;;;;;;0.45;0.45;;;;;;;5.18;100.00;92098.28;2117806;27;20076;-86
2024/04/17 02:15:51;;;;;;;0.40;0.40;;;;;;;5.20;100.00;92098.63;2103044;28;20035;-87
2024/04/17 02:16:52;;;;;;;0.40;0.40;;;;;;;5.27;100.00;92101.16;2090054;28;20051;-86
2024/04/17 02:17:53;;;;;;;0.40;0.40;;;;;;;5.25;100.00;92098.16;2092602;28;20482;-85
2024/04/17 02:18:54;;;;;;;0.32;0.32;;;;;;;5.26;100.00;92104.94;2097667;28;20046;-85
2024/04/17 02:19:55;;;;;;;0.50;0.50;;;;;;;5.36;100.00;92103.28;2106345;28;20028;-86
2024/04/17 02:20:57;;;;;;;0.50;0.50;;;;;;;5.21;100.00;92098.22;2089083;28;20415;-85
2024/04/17 02:22:01;;;;;;;0.50;0.50;;;;;;;5.30;100.00;92100.34;2091401;28;20497;-86
2024/04/17 02:23:01;;;;;;;0.50;0.50;;;;;;;5.35;100.00;92101.75;2094325;28;20035;-85
2024/04/17 02:24:03;;;;;;;0.40;0.40;;;;;;;5.31;100.00;92099.19;2100953;28;20020;-85
2024/04/17 02:25:04;;;;;;;0.30;0.30;;;;;;;5.29;100.00;92102.25;2109177;28;20042;-85
2024/04/17 02:26:05;;;;;;;0.73;0.40;;;;;;;5.15;100.00;92104.41;2097779;28;20097;-85
2024/04/17 02:27:06;;;;;;;0.50;0.50;;;;;;;5.13;100.00;92098.75;2093817;28;20148;-84
2024/04/17 02:28:07;;;;;;;0.40;0.40;;;;;;;5.05;100.00;92098.16;2099470;28;20036;-84
2024/04/17 02:29:08;;;;;;;0.32;0.32;;;;;;;5.20;100.00;92098.63;2104058;28;20023;-84
2024/04/17 02:30:10;;;;;;;0.40;0.40;;;;;;;5.18;100.00;92099.06;2103177;28;20028;-84
2024/04/17 02:31:11;;;;;;;0.43;0.43;;;;;;;5.11;100.00;92095.78;2109197;28;20020;-83
2024/04/17 02:32:14;;;;;;;0.40;0.40;;;;;;;5.05;100.00;92087.56;2105577;28;20035;-85
2024/04/17 02:33:15;;;;;;;0.30;0.30;;;;;;;5.04;100.00;92096.63;2105483;28;20373;-85
2024/04/17 02:34:16;;;;;;;0.30;0.30;;;;;;;5.01;100.00;92092.16;2085629;28;20029;-83
2024/04/17 02:35:17;;;;;;;0.30;0.30;;;;;;;5.00;100.00;92091.44;2088364;28;20151;-85
2024/04/17 02:36:18;;;;;;;0.30;0.30;;;;;;;5.04;100.00;92096.63;2090023;28;20092;-84
2024/04/17 02:37:19;;;;;;;0.32;0.32;;;;;;;4.94;100.00;92100.22;2104400;28;20442;-84
2024/04/17 02:38:19;;;;;;;0.38;0.38;;;;;;;4.92;100.00;92102.53;2105281;28;20031;-85
2024/04/17 02:39:20;;;;;;;0.20;0.20;;;;;;;5.02;100.00;92098.97;2097193;28;20104;-82
2024/04/17 02:40:21;;;;;;;0.30;0.30;;;;;;;5.17;100.00;92097.53;2100348;28;20406;-83
2024/04/17 02:41:22;;;;;;;0.30;0.30;;;;;;;5.11;100.00;92098.44;2105470;28;20038;-86
2024/04/17 02:42:23;;;;;;;0.32;0.32;;;;;;;4.92;100.00;92102.53;2100492;28;20048;-85
2024/04/17 02:43:24;;;;;;;1.85;0.30;;;;;;;4.99;100.00;92099.75;2100733;28;20075;-85
2024/04/17 02:44:25;;;;;;;0.28;0.28;;;;;;;5.07;100.00;92097.75;2111826;28;20107;-83
2024/04/17 02:45:26;;;;;;;0.32;0.32;;;;;;;5.06;100.00;92094.34;2122148;28;20034;-84
2024/04/17 02:46:27;;;;;;;0.30;0.30;;;;;;;5.11;100.00;92096.53;2109402;28;20092;-83
2024/04/17 02:47:28;;;;;;;0.20;0.20;;;;;;;4.99;100.00;92097.84;2112318;28;20176;-84
2024/04/17 02:48:29;;;;;;;0.20;0.20;;;;;;;5.06;100.00;92102.28;2109008;28;20028;-82
2024/04/17 02:49:30;;;;;;;0.45;0.43;;;;;;;5.10;100.00;92099.59;2098648;28;20032;-83
2024/04/17 02:50:31;;;;;;;0.30;0.30;;;;;;;5.00;100.00;92096.72;2100731;28;20472;-84
2024/04/17 02:51:32;;;;;;;0.35;0.30;;;;;;;5.12;100.00;92097.25;2100680;28;20031;-83
2024/04/17 02:52:34;;;;;;;0.30;0.30;;;;;;;5.28;100.00;92100.75;2091809;28;23286;-83
2024/04/17 02:53:35;;;;;;;0.30;0.30;;;;;;;5.32;100.00;92099.94;2109476;28;20566;-85
2024/04/17 02:54:35;;;;;;;0.40;0.30;;;;;;;5.30;100.00;92105.63;2116793;28;20027;-82
2024/04/17 02:55:36;;;;;;;0.40;0.40;;;;;;;5.41;100.00;92102.81;2115990;28;20523;-84
2024/04/17 02:56:38;;;;;;;0.95;0.30;;;;;;;5.24;100.00;92101.97;2117588;28;20115;-83
2024/04/17 02:57:39;;;;;;;0.20;0.20;;;;;;;5.10;100.00;92102.97;2112331;28;20020;-85
2024/04/17 02:58:40;;;;;;;0.20;0.20;;;;;;;5.00;100.00;92104.66;2100740;28;20103;-84
2024/04/17 02:59:41;;;;;;;0.20;0.20;;;;;;;4.83;100.00;92108.38;2092787;28;20024;-85
2024/04/17 03:00:42;;;;;;;0.22;0.20;;;;;;;4.80;100.00;92096.66;2095737;28;20485;-85
2024/04/17 03:01:43;;;;;;;0.20;0.20;;;;;;;4.93;100.00;92099.47;2100235;28;20028;-83
2024/04/17 03:02:44;;;;;;;0.30;0.30;;;;;;;4.91;100.00;92108.97;2111555;28;20023;-84
2024/04/17 03:03:45;;;;;;;0.20;0.20;;;;;;;4.64;100.00;92107.13;2109409;28;20124;-84
2024/04/17 03:04:45;;;;;;;0.30;0.30;;;;;;;4.74;100.00;92098.28;2106238;28;20460;-84
2024/04/17 03:05:46;;;;;;;0.20;0.20;;;;;;;4.96;100.00;92101.34;2106919;28;20147;-85
2024/04/17 03:06:47;;;;;;;0.20;0.20;;;;;;;5.08;100.00;92101.88;2117335;28;20482;-84
2024/04/17 03:07:48;;;;;;;0.20;0.20;;;;;;;5.11;100.00;92104.47;2099867;28;20043;-85
2024/04/17 03:08:49;;;;;;;0.20;0.20;;;;;;;5.02;100.00;92104.25;2105222;28;20087;-83
2024/04/17 03:09:50;;;;;;;0.15;0.15;;;;;;;4.87;100.00;92103.72;2105278;28;20061;-84
2024/04/17 03:11:00;;;;;;;0.20;0.20;;;;;;;5.00;100.00;92104.66;2107396;28;20026;-84
2024/04/17 03:12:01;;;;;;;0.20;0.20;;;;;;;4.93;100.00;92101.38;2110100;28;20027;-83
2024/04/17 03:13:02;;;;;;;0.82;0.30;;;;;;;4.89;100.00;92098.78;2118903;28;20030;-85
2024/04/17 03:14:03;;;;;;;0.22;0.22;;;;;;;5.13;100.00;92109.34;2110224;28;20471;-86
2024/04/17 03:15:06;;;;;;;0.47;0.20;;;;;;;5.28;100.00;92097.34;2092427;28;20056;-85
2024/04/17 03:16:07;;;;;;;0.20;0.20;;;;;;;5.35;100.00;92105.16;2110624;28;20031;-84
2024/04/17 03:17:08;;;;;;;0.28;0.28;;;;;;;5.27;100.00;92101.16;2114579;28;20031;-84
2024/04/17 03:18:09;;;;;;;0.20;0.20;;;;;;;5.21;100.00;92100.13;2099514;28;20034;-83
2024/04/17 03:19:10;;;;;;;0.20;0.20;;;;;;;5.28;100.00;92100.00;2088996;28;20036;-87
2024/04/17 03:20:11;;;;;;;0.20;0.20;;;;;;;4.93;100.00;92102.13;2100766;28;20480;-85
2024/04/17 03:21:12;;;;;;;0.30;0.30;;;;;;;4.94;100.00;92090.38;2099178;28;20040;-84
2024/04/17 03:22:13;;;;;;;0.30;0.30;;;;;;;5.04;100.00;92101.94;2100642;28;20124;-85
2024/04/17 03:23:14;;;;;;;0.55;0.20;;;;;;;4.75;100.00;92105.06;2099906;28;20062;-85
2024/04/17 03:24:15;;;;;;;0.20;0.20;;;;;;;4.94;100.00;92105.53;2089981;28;20078;-84
2024/04/17 03:25:16;;;;;;;0.20;0.20;;;;;;;4.99;100.00;92102.41;2100431;28;20024;-86
2024/04/17 03:26:17;;;;;;;0.20;0.20;;;;;;;4.97;100.00;92102.81;2095367;28;20028;-84
2024/04/17 03:27:18;;;;;;;0.20;0.20;;;;;;;4.96;100.00;92108.50;2100496;28;20063;-85
2024/04/17 03:28:19;;;;;;;0.20;0.20;;;;;;;4.61;100.00;92102.66;2100321;28;20388;-85
2024/04/17 03:29:20;;;;;;;0.20;0.20;;;;;;;5.01;100.00;92106.16;2098356;28;20020;-84
2024/04/17 03:30:21;;;;;;;1.33;0.20;;;;;;;5.07;100.00;92101.13;2100484;28;20016;-85
2024/04/17 03:31:22;;;;;;;0.20;0.20;;;;;;;4.92;100.00;92102.53;2104728;28;20102;-85
2024/04/17 03:32:23;;;;;;;0.20;0.20;;;;;;;4.77;100.00;92104.66;2092630;28;20120;-85
2024/04/17 03:33:24;;;;;;;0.90;0.30;;;;;;;5.02;100.00;92112.19;2083750;28;20089;-85
2024/04/17 03:34:25;;;;;;;0.47;0.30;;;;;;;4.82;100.00;92098.91;2093472;28;20028;-86
2024/04/17 03:35:26;;;;;;;0.20;0.20;;;;;;;5.24;100.00;92104.63;2093793;28;20032;-86
2024/04/17 03:36:27;;;;;;;0.20;0.20;;;;;;;5.05;100.00;92104.19;2096737;28;20036;-86
2024/04/17 03:37:28;;;;;;;0.20;0.20;;;;;;;5.20;100.00;92106.59;2096329;28;20040;-87
2024/04/17 03:38:29;;;;;;;0.20;0.20;;;;;;;5.15;100.00;92109.72;2092225;28;20099;-85
2024/04/17 03:39:30;;;;;;;0.55;0.25;;;;;;;4.96;100.00;92108.50;2087085;28;20112;-85
2024/04/17 03:40:31;;;;;;;0.20;0.20;;;;;;;5.17;100.00;92102.09;2110261;28;20020;-86
2024/04/17 03:41:32;;;;;;;0.30;0.30;;;;;;;5.10;100.00;92110.19;2103141;28;20036;-86
2024/04/17 03:42:41;;;;;;;0.20;0.20;;;;;;;5.04;100.00;92104.59;2091480;28;20442;-85
2024/04/17 03:43:42;;;;;;;0.17;0.17;;;;;;;5.20;100.00;92103.94;2108145;27;20031;-86
2024/04/17 03:44:43;;;;;;;0.20;0.20;;;;;;;5.00;100.00;92106.53;2103852;28;20392;-85
2024/04/17 03:45:44;;;;;;;0.90;0.20;;;;;;;4.96;100.00;92108.50;2093886;28;20383;-85
2024/04/17 03:46:45;;;;;;;0.20;0.20;;;;;;;5.05;100.00;92103.44;2102116;28;20032;-86
2024/04/17 03:47:46;;;;;;;0.20;0.20;;;;;;;5.04;100.00;92110.63;2101899;28;20110;-85
2024/04/17 03:48:47;;;;;;;0.68;0.68;;;;;;;4.97;100.00;92107.38;2098110;28;20510;-85
2024/04/17 03:49:48;;;;;;;0.20;0.20;;;;;;;4.84;100.00;92099.25;2120439;27;20031;-84
2024/04/17 03:50:49;;;;;;;0.20;0.20;;;;;;;5.03;100.00;92103.09;2110244;28;20481;-84
2024/04/17 03:51:52;;;;;;;0.20;0.20;;;;;;;5.23;100.00;92105.78;2110605;28;20200;-85
2024/04/17 03:52:53;;;;;;;0.20;0.20;;;;;;;5.07;100.00;92105.69;2099072;28;20097;-85
2024/04/17 03:53:54;;;;;;;0.20;0.20;;;;;;;5.24;100.00;92099.31;2101378;28;20106;-85
2024/04/17 03:54:55;;;;;;;0.22;0.17;;;;;;;5.05;100.00;92104.19;2110261;28;20479;-86
2024/04/17 03:55:56;;;;;;;0.80;0.20;;;;;;;5.05;100.00;92104.19;2101489;28;20023;-85
2024/04/17 03:56:57;;;;;;;0.30;0.30;;;;;;;4.89;100.00;92108.63;2118708;27;20799;-85
2024/04/17 03:57:59;;;;;;;0.20;0.20;;;;;;;4.94;100.00;92094.94;2116441;27;20103;-86
2024/04/17 03:59:00;;;;;;;0.10;0.10;;;;;;;5.09;100.00;92100.72;2112372;27;20069;-86
2024/04/17 04:00:01;;;;;;;0.20;0.20;;;;;;;4.86;100.00;92101.50;2108410;28;20179;-86
2024/04/17 04:01:02;;;;;;;0.38;0.20;;;;;;;4.92;100.00;92105.19;2103055;28;20016;-85
2024/04/17 04:02:06;;;;;;;0.20;0.20;;;;;;;4.99;100.00;92103.16;2110455;28;20528;-86
2024/04/17 04:03:09;;;;;;;0.20;0.20;;;;;;;5.09;100.00;92098.06;2109520;27;20609;-86
2024/04/17 04:04:10;;;;;;;0.20;0.20;;;;;;;5.22;100.00;92101.63;2108196;28;20063;-86
2024/04/17 04:05:11;;;;;;;0.20;0.20;;;;;;;5.22;100.00;92099.75;2117938;27;20031;-85
2024/04/17 04:06:12;;;;;;;0.50;0.25;;;;;;;5.32;100.00;92107.91;2113245;27;20016;-86
2024/04/17 04:07:13;;;;;;;0.30;0.30;;;;;;;5.13;100.00;92110.09;2110225;28;20034;-86
2024/04/17 04:08:14;;;;;;;0.20;0.20;;;;;;;5.14;100.00;92103.66;2110650;27;20098;-86
2024/04/17 04:09:15;;;;;;;0.20;0.20;;;;;;;5.08;100.00;92107.19;2108388;28;20091;-85
2024/04/17 04:10:16;;;;;;;0.30;0.20;;;;;;;5.00;100.00;92104.66;2102015;28;20032;-86
2024/04/17 04:11:19;;;;;;;0.63;0.28;;;;;;;5.13;100.00;92101.41;2101765;28;20106;-86
2024/04/17 04:12:20;;;;;;;0.30;0.30;;;;;;;5.06;100.00;92104.94;2087886;28;20017;-86
2024/04/17 04:13:21;;;;;;;0.30;0.30;;;;;;;4.99;100.00;92103.16;2089071;28;20935;-86
2024/04/17 04:14:22;;;;;;;0.70;0.30;;;;;;;4.84;100.00;92101.91;2093693;28;20032;-85
2024/04/17 04:15:23;;;;;;;0.40;0.40;;;;;;;4.77;100.00;92102.75;2090834;28;20032;-84
2024/04/17 04:16:26;;;;;;;0.30;0.30;;;;;;;4.74;100.00;92105.47;2104018;28;20095;-85
2024/04/17 04:17:27;;;;;;;0.30;0.30;;;;;;;4.84;100.00;92112.50;2105738;28;20028;-85
2024/04/17 04:18:27;;;;;;;0.85;0.77;;;;;;;4.92;100.00;92100.63;2098541;28;20059;-85
2024/04/17 04:19:28;;;;;;;0.60;0.45;;;;;;;4.75;100.00;92113.03;2106063;28;20039;-85
2024/04/17 04:20:29;;;;;;;1.65;1.55;;;;;;;5.07;100.00;92106.44;2103892;28;20468;-85
2024/04/17 04:21:30;;;;;;;1.30;1.20;;;;;;;5.11;100.00;92114.31;2104677;28;20093;-84
2024/04/17 04:22:31;;;;;;;0.43;0.30;;;;;;;5.11;100.00;92115.06;2099399;28;20020;-84
2024/04/17 04:23:32;;;;;;;0.30;0.30;;;;;;;5.25;100.00;92114.06;2092926;28;20020;-85
2024/04/17 04:24:33;;;;;;;0.40;0.40;;;;;;;5.35;100.00;92112.38;2106498;27;20021;-85
2024/04/17 04:25:34;;;;;;;0.30;0.30;;;;;;;5.31;100.00;92115.06;2107597;28;20024;-86
2024/04/17 04:26:35;;;;;;;1.17;0.35;;;;;;;5.43;100.00;92111.09;2092863;28;20059;-85
2024/04/17 04:27:36;;;;;;;0.40;0.40;;;;;;;5.40;100.00;92115.31;2099579;28;20047;-86
2024/04/17 04:28:37;;;;;;;0.40;0.40;;;;;;;5.42;100.00;92110.34;2101588;28;20698;-86
2024/04/17 04:29:38;;;;;;;0.60;0.45;;;;;;;5.20;100.00;92112.63;2102608;28;20027;-86
2024/04/17 04:30:41;;;;;;;0.70;0.70;;;;;;;5.10;100.00;92115.47;2111977;27;20041;-87
2024/04/17 04:31:42;;;;;;;0.60;0.60;;;;;;;5.06;100.00;92112.88;2105567;28;20094;-86
2024/04/17 04:32:44;;;;;;;0.50;0.50;;;;;;;4.87;100.00;92114.31;2100182;28;20521;-86
2024/04/17 04:33:45;;;;;;;0.45;0.45;;;;;;;5.00;100.00;92114.50;2113700;28;20031;-85
2024/04/17 04:34:46;;;;;;;0.30;0.30;;;;;;;4.96;100.00;92111.16;2109655;28;20031;-84
2024/04/17 04:35:47;;;;;;;1.23;1.13;;;;;;;4.88;100.00;92115.84;2110158;28;20082;-84
2024/04/17 04:36:48;;;;;;;1.20;1.10;;;;;;;4.86;100.00;92117.38;2081520;28;20021;-85
2024/04/17 04:37:49;;;;;;;0.50;0.50;;;;;;;4.85;100.00;92118.53;2098728;28;20055;-84
2024/04/17 04:38:50;;;;;;;0.98;0.98;;;;;;;4.99;100.00;92110.34;2093942;28;20583;-85
2024/04/17 04:39:51;;;;;;;1.10;1.05;;;;;;;5.02;100.00;92110.28;2100818;27;20020;-84
2024/04/17 04:40:52;;;;;;;0.57;0.57;;;;;;;4.96;100.00;92109.28;2109408;28;20441;-85
2024/04/17 04:41:53;;;;;;;1.10;0.63;;;;;;;4.87;100.00;92113.56;2119080;27;20494;-85
2024/04/17 04:42:54;;;;;;;0.30;0.30;;;;;;;4.66;100.00;92112.78;2108120;28;20110;-85
2024/04/17 04:43:55;;;;;;;0.30;0.30;;;;;;;4.88;100.00;92115.84;2095817;28;20025;-85
2024/04/17 04:44:56;;;;;;;0.73;0.50;;;;;;;4.95;100.00;92115.69;2102395;28;20086;-85
2024/04/17 04:45:57;;;;;;;0.40;0.40;;;;;;;4.81;100.00;92118.59;2085623;28;20028;-85
2024/04/17 04:47:01;;;;;;;0.22;0.22;;;;;;;4.78;100.00;92116.75;2097287;28;20166;-85
2024/04/17 04:48:02;;;;;;;0.30;0.30;;;;;;;4.75;100.00;92123.59;2094747;28;20027;-86
2024/04/17 04:49:04;;;;;;;0.30;0.30;;;;;;;4.63;100.00;92118.13;2095344;28;20040;-85